Hamnavoe — VSTY7 — position and weather

sailwx.info

Track history (hours):
 
Tides and Currents Weather Stations Pressure Air Temp Water Temp Dewpoint Dewpoint Depression Visibility Wind Speed Wind Dir Waves Ship Positions

Hamnavoe

Operator: NorthLink Orkey & Shetland Ferries Ltd

Last reported at 2016-Aug-27 04:32 UTC. Time now 2016-Aug-27 06:25 UTC.
Position N 58°58' W 003°18'.

Length 112 m; draft 4.2 m.

Type: Ship. MMSI: 235449000.

Date/timePositionNaut miles runAvg speedWind from/ knotsBaromVisibWave heightAir tempDewpointWater temp
2016-Aug-27 04:32N 58°58' W 003°18'0 0.0
2016-Aug-27 03:29N 58°58' W 003°18'0 0.0
2016-Aug-27 02:32N 58°58' W 003°18'0 0.0
2016-Aug-27 01:32N 58°58' W 003°18'0 0.0
2016-Aug-27 00:32N 58°58' W 003°18'0 0.0
2016-Aug-26 23:29N 58°58' W 003°18'0 0.0
2016-Aug-26 22:32N 58°58' W 003°18'0 0.0
2016-Aug-26 21:32N 58°58' W 003°18'0 0.0
2016-Aug-26 20:32N 58°58' W 003°18'0 0.0
2016-Aug-26 19:33N 58°58' W 003°18'1312.8
2016-Aug-26 18:33N 58°47' W 003°30'1010.0
2016-Aug-26 17:33N 58°37' W 003°32'1110.6
2016-Aug-26 16:33N 58°47' W 003°29'1212.2
2016-Aug-26 15:33N 58°58' W 003°18'0 0.0
2016-Aug-26 14:33N 58°58' W 003°18'0 0.0
2016-Aug-26 13:33N 58°58' W 003°18'1515.3
2016-Aug-26 12:34N 58°44' W 003°30'7 7.3
2016-Aug-26 11:33N 58°37' W 003°32'1615.8
2016-Aug-26 10:33N 58°52' W 003°28'8 7.7
2016-Aug-26 09:33N 58°58' W 003°18'7 7.1
2016-Aug-26 08:33N 58°53' W 003°28'10 4.8
2016-Aug-26 06:33N 58°43' W 003°30'16 7.3
2016-Aug-26 04:24N 58°58' W 003°18'0 0.0
2016-Aug-26 03:30N 58°58' W 003°18'0 0.0
2016-Aug-26 02:33N 58°58' W 003°18'0 0.0
2016-Aug-26 01:30N 58°58' W 003°18'0 0.0
2016-Aug-26 00:33N 58°58' W 003°18'0 0.0
2016-Aug-25 23:33N 58°58' W 003°18'0 0.0
2016-Aug-25 22:33N 58°58' W 003°18'0 0.0
2016-Aug-25 21:33N 58°58' W 003°18'0 0.0
2016-Aug-25 20:30N 58°58' W 003°18'0 0.0
2016-Aug-25 19:33N 58°58' W 003°18'1110.9
2016-Aug-25 18:34N 58°49' W 003°30'1212.2
2016-Aug-25 17:33N 58°37' W 003°32'1111.3
2016-Aug-25 16:33N 58°48' W 003°29'1211.6
2016-Aug-25 15:33N 58°58' W 003°18'0 0.0
2016-Aug-25 14:31N 58°58' W 003°18'0 0.4
2016-Aug-25 13:33N 58°57' W 003°18'1615.9
2016-Aug-25 12:34N 58°43' W 003°30'6 6.4
2016-Aug-25 11:33N 58°37' W 003°32'1514.7
2016-Aug-25 10:33N 58°51' W 003°28'9 8.5
2016-Aug-25 09:33N 58°58' W 003°18'8 8.4
2016-Aug-25 08:33N 58°51' W 003°28'1514.9
2016-Aug-25 07:33N 58°37' W 003°32'7 6.8
2016-Aug-25 06:33N 58°43' W 003°30'16 7.9
2016-Aug-25 04:33N 58°58' W 003°18'0 0.0
2016-Aug-25 03:33N 58°58' W 003°18'0 0.0
2016-Aug-25 02:33N 58°58' W 003°18'0 0.0
2016-Aug-25 01:33N 58°58' W 003°18'0 0.0
2016-Aug-25 00:33N 58°58' W 003°18'0 0.0
2016-Aug-24 23:33N 58°58' W 003°18'0 0.0
2016-Aug-24 22:33N 58°58' W 003°18'0 0.0
2016-Aug-24 21:33N 58°58' W 003°18'0 0.0
2016-Aug-24 20:33N 58°58' W 003°18'0 0.0
2016-Aug-24 19:33N 58°58' W 003°18'1211.9
2016-Aug-24 18:33N 58°48' W 003°29'1111.0
2016-Aug-24 17:33N 58°37' W 003°32'1010.1
2016-Aug-24 16:33N 58°47' W 003°29'1312.7
2016-Aug-24 15:34N 58°58' W 003°18'0 0.0
2016-Aug-24 14:32N 58°58' W 003°18'0 0.2
2016-Aug-24 13:33N 58°58' W 003°18'1515.2
2016-Aug-24 12:33N 58°44' W 003°30'7 7.2
2016-Aug-24 11:33N 58°37' W 003°32'1615.7
2016-Aug-24 10:33N 58°52' W 003°28'8 7.7
2016-Aug-24 09:34N 58°58' W 003°18'7 6.8
2016-Aug-24 08:33N 58°53' W 003°27'1716.6
2016-Aug-24 07:33N 58°37' W 003°32'6 5.8
2016-Aug-24 06:33N 58°42' W 003°30'17 8.0
2016-Aug-24 04:28N 58°58' W 003°18'0 0.0
2016-Aug-24 03:28N 58°58' W 003°18'0 0.0
2016-Aug-24 02:31N 58°58' W 003°18'0 0.0
2016-Aug-24 01:28N 58°58' W 003°18'0 0.0
2016-Aug-24 00:31N 58°58' W 003°18'0 0.0
2016-Aug-23 23:31N 58°58' W 003°18'0 0.0
2016-Aug-23 22:28N 58°58' W 003°18'0 0.0
2016-Aug-23 21:28N 58°58' W 003°18'0 0.0
2016-Aug-23 20:28N 58°58' W 003°18'0 0.0
2016-Aug-23 19:33N 58°58' W 003°18'1514.9
2016-Aug-23 18:33N 58°45' W 003°31'8 8.0
2016-Aug-23 17:33N 58°37' W 003°32'1212.0
2016-Aug-23 16:33N 58°49' W 003°29'1111.0
2016-Aug-23 15:33N 58°58' W 003°18'0 0.0
2016-Aug-23 14:33N 58°58' W 003°18'1 0.5
2016-Aug-23 13:33N 58°57' W 003°18'1615.8
2016-Aug-23 12:33N 58°43' W 003°30'6 6.4
2016-Aug-23 11:34N 58°37' W 003°32'1716.7
2016-Aug-23 10:34N 58°53' W 003°27'7 6.8
2016-Aug-23 09:33N 58°58' W 003°18'7 7.0
2016-Aug-23 08:33N 58°53' W 003°28'1716.6
2016-Aug-23 07:33N 58°37' W 003°32'7 7.0
2016-Aug-23 06:33N 58°44' W 003°30'1515.5
2016-Aug-23 05:34N 58°58' W 003°18'0 0.2
2016-Aug-23 04:33N 58°58' W 003°18'0 0.0
2016-Aug-23 03:33N 58°58' W 003°18'0 0.0
2016-Aug-23 02:33N 58°58' W 003°18'0 0.0
2016-Aug-23 01:33N 58°58' W 003°18'0 0.0
2016-Aug-23 00:33N 58°58' W 003°18'0 0.0
2016-Aug-22 23:33N 58°58' W 003°18'0 0.0
2016-Aug-22 22:33N 58°58' W 003°18'0 0.0
2016-Aug-22 21:33N 58°58' W 003°18'0 0.0
2016-Aug-22 20:33N 58°58' W 003°18'5 5.1
2016-Aug-22 19:33N 58°55' W 003°26'1918.1
2016-Aug-22 18:32N 58°37' W 003°32'4 3.8
2016-Aug-22 17:33N 58°38' W 003°38'1110.8
2016-Aug-22 16:33N 58°49' W 003°33'1211.5
2016-Aug-22 15:30N 58°58' W 003°18'0 0.0
2016-Aug-22 14:24N 58°58' W 003°18'0 0.3
2016-Aug-22 13:33N 58°58' W 003°18'1515.5
2016-Aug-22 12:33N 58°43' W 003°30'7 6.8
2016-Aug-22 11:33N 58°37' W 003°32'1515.3
2016-Aug-22 10:33N 58°52' W 003°28'8 8.1
2016-Aug-22 09:33N 58°58' W 003°18'7 7.2
2016-Aug-22 08:33N 58°53' W 003°28'1616.3
2016-Aug-22 07:33N 58°37' W 003°32'7 7.1
2016-Aug-22 06:33N 58°44' W 003°32'1615.5
2016-Aug-22 05:33N 58°58' W 003°18'0 0.2
2016-Aug-22 04:32N 58°58' W 003°18'0 0.0
2016-Aug-22 03:32N 58°58' W 003°18'0 0.0
2016-Aug-22 02:32N 58°58' W 003°18'0 0.0
2016-Aug-22 01:32N 58°58' W 003°18'0 0.0
2016-Aug-22 00:32N 58°58' W 003°18'0 0.0
2016-Aug-21 23:32N 58°58' W 003°18'0 0.0
2016-Aug-21 22:32N 58°58' W 003°18'0 0.0
2016-Aug-21 21:32N 58°58' W 003°18'0 0.0
2016-Aug-21 20:32N 58°58' W 003°18'0 0.0
2016-Aug-21 19:33N 58°58' W 003°18'1312.7
2016-Aug-21 18:34N 58°47' W 003°29'1010.0
2016-Aug-21 17:33N 58°37' W 003°32'1010.4
2016-Aug-21 16:33N 58°47' W 003°29'1212.5
2016-Aug-21 15:33N 58°58' W 003°18'0 0.0
2016-Aug-21 14:33N 58°58' W 003°18'0 0.0
2016-Aug-21 13:33N 58°58' W 003°18'0 0.0
2016-Aug-21 12:33N 58°58' W 003°18'1313.1
2016-Aug-21 11:33N 58°46' W 003°29'10 9.4
2016-Aug-21 10:33N 58°37' W 003°32'0 0.0
2016-Aug-21 09:34N 58°37' W 003°32'1514.9
2016-Aug-21 08:34N 58°51' W 003°28'8 8.2
2016-Aug-21 07:32N 58°58' W 003°18'0 0.0
2016-Aug-21 06:32N 58°58' W 003°18'0 0.0
2016-Aug-21 05:32N 58°58' W 003°18'0 0.0
2016-Aug-21 04:32N 58°58' W 003°18'0 0.0
2016-Aug-21 03:32N 58°58' W 003°18'0 0.0
2016-Aug-21 02:32N 58°58' W 003°18'0 0.0
2016-Aug-21 01:32N 58°58' W 003°18'0 0.0
2016-Aug-21 00:32N 58°58' W 003°18'0 0.0
2016-Aug-20 23:32N 58°58' W 003°18'0 0.0
2016-Aug-20 22:32N 58°58' W 003°18'0 0.0
2016-Aug-20 21:32N 58°58' W 003°18'0 0.0
2016-Aug-20 20:32N 58°58' W 003°18'0 0.0
2016-Aug-20 19:33N 58°58' W 003°18'1111.5
2016-Aug-20 18:33N 58°48' W 003°29'1111.4
2016-Aug-20 17:33N 58°37' W 003°32'1110.5
2016-Aug-20 16:33N 58°47' W 003°29'1211.9
2016-Aug-20 15:31N 58°58' W 003°18'0 0.0
2016-Aug-20 14:31N 58°58' W 003°18'1 1.1
2016-Aug-20 13:33N 58°57' W 003°17'1615.7
2016-Aug-20 12:33N 58°43' W 003°30'6 6.0
2016-Aug-20 11:33N 58°37' W 003°32'1615.7
2016-Aug-20 10:33N 58°52' W 003°28'8 7.8
2016-Aug-20 09:33N 58°58' W 003°18'10 9.7
2016-Aug-20 08:33N 58°50' W 003°28'1313.4
2016-Aug-20 07:34N 58°37' W 003°32'6 6.4
2016-Aug-20 06:33N 58°43' W 003°29'1615.8
2016-Aug-20 05:33N 58°57' W 003°18'0 0.3
2016-Aug-20 04:32N 58°58' W 003°18'0 0.0
2016-Aug-20 03:29N 58°58' W 003°18'0 0.0
2016-Aug-20 02:26N 58°58' W 003°18'0 0.0
2016-Aug-20 01:32N 58°58' W 003°18'0 0.0
2016-Aug-20 00:32N 58°58' W 003°18'0 0.0
2016-Aug-19 23:32N 58°58' W 003°18'0 0.0
2016-Aug-19 22:32N 58°58' W 003°18'0 0.0
2016-Aug-19 21:32N 58°58' W 003°18'0 0.0
2016-Aug-19 20:33N 58°58' W 003°18'0 0.0
2016-Aug-19 19:34N 58°58' W 003°18'1212.1
2016-Aug-19 18:33N 58°47' W 003°29'1110.8
2016-Aug-19 17:33N 58°37' W 003°32'1010.1
2016-Aug-19 16:33N 58°47' W 003°29'1312.6
2016-Aug-19 15:33N 58°58' W 003°18'0 0.0
2016-Aug-19 14:32N 58°58' W 003°18'0 0.2
2016-Aug-19 13:33N 58°58' W 003°18'1515.2
2016-Aug-19 12:33N 58°44' W 003°30'7 7.3
2016-Aug-19 11:33N 58°37' W 003°32'1515.0
2016-Aug-19 10:33N 58°51' W 003°28'8 8.3
2016-Aug-19 09:34N 58°58' W 003°18'8 8.2
2016-Aug-19 08:33N 58°52' W 003°28'1515.1
2016-Aug-19 07:33N 58°37' W 003°32'7 7.2
2016-Aug-19 06:33N 58°44' W 003°30'1515.2
2016-Aug-19 05:34N 58°58' W 003°18'0 0.2
2016-Aug-19 04:31N 58°58' W 003°18'0 0.0
2016-Aug-19 03:31N 58°58' W 003°18'0 0.0
2016-Aug-19 02:31N 58°58' W 003°18'0 0.0
2016-Aug-19 01:31N 58°58' W 003°18'0 0.0
2016-Aug-19 00:31N 58°58' W 003°18'0 0.0
2016-Aug-18 23:31N 58°58' W 003°18'0 0.0
2016-Aug-18 22:31N 58°58' W 003°18'0 0.0
2016-Aug-18 21:31N 58°58' W 003°18'0 0.0
2016-Aug-18 20:31N 58°58' W 003°18'0 0.0
2016-Aug-18 19:31N 58°58' W 003°18'1111.4
2016-Aug-18 18:33N 58°48' W 003°29'1211.9
2016-Aug-18 17:33N 58°37' W 003°32'1010.1
2016-Aug-18 16:33N 58°47' W 003°29'1312.6
2016-Aug-18 15:33N 58°58' W 003°18'0 0.0
2016-Aug-18 14:33N 58°58' W 003°18'1 0.5
2016-Aug-18 13:33N 58°57' W 003°18'1615.9
2016-Aug-18 12:33N 58°43' W 003°30'6 6.2
2016-Aug-18 11:33N 58°37' W 003°32'1414.3
2016-Aug-18 10:33N 58°51' W 003°28'9 8.9
2016-Aug-18 09:33N 58°58' W 003°18'8 7.6
2016-Aug-18 08:33N 58°52' W 003°28'1615.9
2016-Aug-18 07:34N 58°37' W 003°32'6 6.3
2016-Aug-18 06:33N 58°43' W 003°30'1615.9
2016-Aug-18 05:34N 58°57' W 003°18'1 0.5
2016-Aug-18 04:29N 58°58' W 003°18'0 0.0
2016-Aug-18 03:29N 58°58' W 003°18'0 0.0
2016-Aug-18 02:29N 58°58' W 003°18'0 0.0
2016-Aug-18 01:29N 58°58' W 003°18'0 0.0
2016-Aug-18 00:29N 58°58' W 003°18'0 0.0
2016-Aug-17 23:29N 58°58' W 003°18'0 0.0
2016-Aug-17 22:29N 58°58' W 003°18'0 0.0
2016-Aug-17 21:29N 58°58' W 003°18'0 0.0
2016-Aug-17 20:29N 58°58' W 003°18'0 0.0
2016-Aug-17 19:33N 58°58' W 003°18'1111.3
2016-Aug-17 18:33N 58°48' W 003°29'1211.8
2016-Aug-17 17:33N 58°37' W 003°32'1111.0
2016-Aug-17 16:33N 58°48' W 003°30'1212.0
2016-Aug-17 15:33N 58°58' W 003°18'0 0.0
2016-Aug-17 14:33N 58°58' W 003°18'0 0.1
2016-Aug-17 13:33N 58°58' W 003°18'1514.9
2016-Aug-17 12:33N 58°44' W 003°29'8 7.7
2016-Aug-17 11:33N 58°37' W 003°32'1515.1
2016-Aug-17 10:33N 58°52' W 003°28'8 8.2
2016-Aug-17 09:33N 58°58' W 003°18'7 6.8
2016-Aug-17 08:33N 58°53' W 003°27'1716.7
2016-Aug-17 07:33N 58°37' W 003°32'5 4.8
2016-Aug-17 06:33N 58°41' W 003°30'1716.6
2016-Aug-17 05:33N 58°57' W 003°19'  
Track history (hours):
 
Tides and Currents Weather Stations Pressure Air Temp Water Temp Dewpoint Dewpoint Depression Visibility Wind Speed Wind Dir Waves Ship Positions

Hamnavoe

Operator: NorthLink Orkey & Shetland Ferries Ltd

Last reported at 2016-Aug-27 04:32 UTC. Time now 2016-Aug-27 06:25 UTC.
Position N 58°58' W 003°18'.

Length 112 m; draft 4.2 m.

Type: Ship. MMSI: 235449000.

Date/timePositionNaut miles runAvg speedWind from/ knotsBaromVisibWave heightAir tempDewpointWater temp
2016-Aug-27 04:32N 58°58' W 003°18'0 0.0
2016-Aug-27 03:29N 58°58' W 003°18'0 0.0
2016-Aug-27 02:32N 58°58' W 003°18'0 0.0
2016-Aug-27 01:32N 58°58' W 003°18'0 0.0
2016-Aug-27 00:32N 58°58' W 003°18'0 0.0
2016-Aug-26 23:29N 58°58' W 003°18'0 0.0
2016-Aug-26 22:32N 58°58' W 003°18'0 0.0
2016-Aug-26 21:32N 58°58' W 003°18'0 0.0
2016-Aug-26 20:32N 58°58' W 003°18'0 0.0
2016-Aug-26 19:33N 58°58' W 003°18'1312.8
2016-Aug-26 18:33N 58°47' W 003°30'1010.0
2016-Aug-26 17:33N 58°37' W 003°32'1110.6
2016-Aug-26 16:33N 58°47' W 003°29'1212.2
2016-Aug-26 15:33N 58°58' W 003°18'0 0.0
2016-Aug-26 14:33N 58°58' W 003°18'0 0.0
2016-Aug-26 13:33N 58°58' W 003°18'1515.3
2016-Aug-26 12:34N 58°44' W 003°30'7 7.3
2016-Aug-26 11:33N 58°37' W 003°32'1615.8
2016-Aug-26 10:33N 58°52' W 003°28'8 7.7
2016-Aug-26 09:33N 58°58' W 003°18'7 7.1
2016-Aug-26 08:33N 58°53' W 003°28'10 4.8
2016-Aug-26 06:33N 58°43' W 003°30'16 7.3
2016-Aug-26 04:24N 58°58' W 003°18'0 0.0
2016-Aug-26 03:30N 58°58' W 003°18'0 0.0
2016-Aug-26 02:33N 58°58' W 003°18'0 0.0
2016-Aug-26 01:30N 58°58' W 003°18'0 0.0
2016-Aug-26 00:33N 58°58' W 003°18'0 0.0
2016-Aug-25 23:33N 58°58' W 003°18'0 0.0
2016-Aug-25 22:33N 58°58' W 003°18'0 0.0
2016-Aug-25 21:33N 58°58' W 003°18'0 0.0
2016-Aug-25 20:30N 58°58' W 003°18'0 0.0
2016-Aug-25 19:33N 58°58' W 003°18'1110.9
2016-Aug-25 18:34N 58°49' W 003°30'1212.2
2016-Aug-25 17:33N 58°37' W 003°32'1111.3
2016-Aug-25 16:33N 58°48' W 003°29'1211.6
2016-Aug-25 15:33N 58°58' W 003°18'0 0.0
2016-Aug-25 14:31N 58°58' W 003°18'0 0.4
2016-Aug-25 13:33N 58°57' W 003°18'1615.9
2016-Aug-25 12:34N 58°43' W 003°30'6 6.4
2016-Aug-25 11:33N 58°37' W 003°32'1514.7
2016-Aug-25 10:33N 58°51' W 003°28'9 8.5
2016-Aug-25 09:33N 58°58' W 003°18'8 8.4
2016-Aug-25 08:33N 58°51' W 003°28'1514.9
2016-Aug-25 07:33N 58°37' W 003°32'7 6.8
2016-Aug-25 06:33N 58°43' W 003°30'16 7.9
2016-Aug-25 04:33N 58°58' W 003°18'0 0.0
2016-Aug-25 03:33N 58°58' W 003°18'0 0.0
2016-Aug-25 02:33N 58°58' W 003°18'0 0.0
2016-Aug-25 01:33N 58°58' W 003°18'0 0.0
2016-Aug-25 00:33N 58°58' W 003°18'0 0.0
2016-Aug-24 23:33N 58°58' W 003°18'0 0.0
2016-Aug-24 22:33N 58°58' W 003°18'0 0.0
2016-Aug-24 21:33N 58°58' W 003°18'0 0.0
2016-Aug-24 20:33N 58°58' W 003°18'0 0.0
2016-Aug-24 19:33N 58°58' W 003°18'1211.9
2016-Aug-24 18:33N 58°48' W 003°29'1111.0
2016-Aug-24 17:33N 58°37' W 003°32'1010.1
2016-Aug-24 16:33N 58°47' W 003°29'1312.7
2016-Aug-24 15:34N 58°58' W 003°18'0 0.0
2016-Aug-24 14:32N 58°58' W 003°18'0 0.2
2016-Aug-24 13:33N 58°58' W 003°18'1515.2
2016-Aug-24 12:33N 58°44' W 003°30'7 7.2
2016-Aug-24 11:33N 58°37' W 003°32'1615.7
2016-Aug-24 10:33N 58°52' W 003°28'8 7.7
2016-Aug-24 09:34N 58°58' W 003°18'7 6.8
2016-Aug-24 08:33N 58°53' W 003°27'1716.6
2016-Aug-24 07:33N 58°37' W 003°32'6 5.8
2016-Aug-24 06:33N 58°42' W 003°30'17 8.0
2016-Aug-24 04:28N 58°58' W 003°18'0 0.0
2016-Aug-24 03:28N 58°58' W 003°18'0 0.0
2016-Aug-24 02:31N 58°58' W 003°18'0 0.0
2016-Aug-24 01:28N 58°58' W 003°18'0 0.0
2016-Aug-24 00:31N 58°58' W 003°18'0 0.0
2016-Aug-23 23:31N 58°58' W 003°18'0 0.0
2016-Aug-23 22:28N 58°58' W 003°18'0 0.0
2016-Aug-23 21:28N 58°58' W 003°18'0 0.0
2016-Aug-23 20:28N 58°58' W 003°18'0 0.0
2016-Aug-23 19:33N 58°58' W 003°18'1514.9
2016-Aug-23 18:33N 58°45' W 003°31'8 8.0
2016-Aug-23 17:33N 58°37' W 003°32'1212.0
2016-Aug-23 16:33N 58°49' W 003°29'1111.0
2016-Aug-23 15:33N 58°58' W 003°18'0 0.0
2016-Aug-23 14:33N 58°58' W 003°18'1 0.5
2016-Aug-23 13:33N 58°57' W 003°18'1615.8
2016-Aug-23 12:33N 58°43' W 003°30'6 6.4
2016-Aug-23 11:34N 58°37' W 003°32'1716.7
2016-Aug-23 10:34N 58°53' W 003°27'7 6.8
2016-Aug-23 09:33N 58°58' W 003°18'7 7.0
2016-Aug-23 08:33N 58°53' W 003°28'1716.6
2016-Aug-23 07:33N 58°37' W 003°32'7 7.0
2016-Aug-23 06:33N 58°44' W 003°30'1515.5
2016-Aug-23 05:34N 58°58' W 003°18'0 0.2
2016-Aug-23 04:33N 58°58' W 003°18'0 0.0
2016-Aug-23 03:33N 58°58' W 003°18'0 0.0
2016-Aug-23 02:33N 58°58' W 003°18'0 0.0
2016-Aug-23 01:33N 58°58' W 003°18'0 0.0
2016-Aug-23 00:33N 58°58' W 003°18'0 0.0
2016-Aug-22 23:33N 58°58' W 003°18'0 0.0
2016-Aug-22 22:33N 58°58' W 003°18'0 0.0
2016-Aug-22 21:33N 58°58' W 003°18'0 0.0
2016-Aug-22 20:33N 58°58' W 003°18'5 5.1
2016-Aug-22 19:33N 58°55' W 003°26'1918.1
2016-Aug-22 18:32N 58°37' W 003°32'4 3.8
2016-Aug-22 17:33N 58°38' W 003°38'1110.8
2016-Aug-22 16:33N 58°49' W 003°33'1211.5
2016-Aug-22 15:30N 58°58' W 003°18'0 0.0
2016-Aug-22 14:24N 58°58' W 003°18'0 0.3
2016-Aug-22 13:33N 58°58' W 003°18'1515.5
2016-Aug-22 12:33N 58°43' W 003°30'7 6.8
2016-Aug-22 11:33N 58°37' W 003°32'1515.3
2016-Aug-22 10:33N 58°52' W 003°28'8 8.1
2016-Aug-22 09:33N 58°58' W 003°18'7 7.2
2016-Aug-22 08:33N 58°53' W 003°28'1616.3
2016-Aug-22 07:33N 58°37' W 003°32'7 7.1
2016-Aug-22 06:33N 58°44' W 003°32'1615.5
2016-Aug-22 05:33N 58°58' W 003°18'0 0.2
2016-Aug-22 04:32N 58°58' W 003°18'0 0.0
2016-Aug-22 03:32N 58°58' W 003°18'0 0.0
2016-Aug-22 02:32N 58°58' W 003°18'0 0.0
2016-Aug-22 01:32N 58°58' W 003°18'0 0.0
2016-Aug-22 00:32N 58°58' W 003°18'0 0.0
2016-Aug-21 23:32N 58°58' W 003°18'0 0.0
2016-Aug-21 22:32N 58°58' W 003°18'0 0.0
2016-Aug-21 21:32N 58°58' W 003°18'0 0.0
2016-Aug-21 20:32N 58°58' W 003°18'0 0.0
2016-Aug-21 19:33N 58°58' W 003°18'1312.7
2016-Aug-21 18:34N 58°47' W 003°29'1010.0
2016-Aug-21 17:33N 58°37' W 003°32'1010.4
2016-Aug-21 16:33N 58°47' W 003°29'1212.5
2016-Aug-21 15:33N 58°58' W 003°18'0 0.0
2016-Aug-21 14:33N 58°58' W 003°18'0 0.0
2016-Aug-21 13:33N 58°58' W 003°18'0 0.0
2016-Aug-21 12:33N 58°58' W 003°18'1313.1
2016-Aug-21 11:33N 58°46' W 003°29'10 9.4
2016-Aug-21 10:33N 58°37' W 003°32'0 0.0
2016-Aug-21 09:34N 58°37' W 003°32'1514.9
2016-Aug-21 08:34N 58°51' W 003°28'8 8.2
2016-Aug-21 07:32N 58°58' W 003°18'0 0.0
2016-Aug-21 06:32N 58°58' W 003°18'0 0.0
2016-Aug-21 05:32N 58°58' W 003°18'0 0.0
2016-Aug-21 04:32N 58°58' W 003°18'0 0.0
2016-Aug-21 03:32N 58°58' W 003°18'0 0.0
2016-Aug-21 02:32N 58°58' W 003°18'0 0.0
2016-Aug-21 01:32N 58°58' W 003°18'0 0.0
2016-Aug-21 00:32N 58°58' W 003°18'0 0.0
2016-Aug-20 23:32N 58°58' W 003°18'0 0.0
2016-Aug-20 22:32N 58°58' W 003°18'0 0.0
2016-Aug-20 21:32N 58°58' W 003°18'0 0.0
2016-Aug-20 20:32N 58°58' W 003°18'0 0.0
2016-Aug-20 19:33N 58°58' W 003°18'1111.5
2016-Aug-20 18:33N 58°48' W 003°29'1111.4
2016-Aug-20 17:33N 58°37' W 003°32'1110.5
2016-Aug-20 16:33N 58°47' W 003°29'1211.9
2016-Aug-20 15:31N 58°58' W 003°18'0 0.0
2016-Aug-20 14:31N 58°58' W 003°18'1 1.1
2016-Aug-20 13:33N 58°57' W 003°17'1615.7
2016-Aug-20 12:33N 58°43' W 003°30'6 6.0
2016-Aug-20 11:33N 58°37' W 003°32'1615.7
2016-Aug-20 10:33N 58°52' W 003°28'8 7.8
2016-Aug-20 09:33N 58°58' W 003°18'10 9.7
2016-Aug-20 08:33N 58°50' W 003°28'1313.4
2016-Aug-20 07:34N 58°37' W 003°32'6 6.4
2016-Aug-20 06:33N 58°43' W 003°29'1615.8
2016-Aug-20 05:33N 58°57' W 003°18'0 0.3
2016-Aug-20 04:32N 58°58' W 003°18'0 0.0
2016-Aug-20 03:29N 58°58' W 003°18'0 0.0
2016-Aug-20 02:26N 58°58' W 003°18'0 0.0
2016-Aug-20 01:32N 58°58' W 003°18'0 0.0
2016-Aug-20 00:32N 58°58' W 003°18'0 0.0
2016-Aug-19 23:32N 58°58' W 003°18'0 0.0
2016-Aug-19 22:32N 58°58' W 003°18'0 0.0
2016-Aug-19 21:32N 58°58' W 003°18'0 0.0
2016-Aug-19 20:33N 58°58' W 003°18'0 0.0
2016-Aug-19 19:34N 58°58' W 003°18'1212.1
2016-Aug-19 18:33N 58°47' W 003°29'1110.8
2016-Aug-19 17:33N 58°37' W 003°32'1010.1
2016-Aug-19 16:33N 58°47' W 003°29'1312.6
2016-Aug-19 15:33N 58°58' W 003°18'0 0.0
2016-Aug-19 14:32N 58°58' W 003°18'0 0.2
2016-Aug-19 13:33N 58°58' W 003°18'1515.2
2016-Aug-19 12:33N 58°44' W 003°30'7 7.3
2016-Aug-19 11:33N 58°37' W 003°32'1515.0
2016-Aug-19 10:33N 58°51' W 003°28'8 8.3
2016-Aug-19 09:34N 58°58' W 003°18'8 8.2
2016-Aug-19 08:33N 58°52' W 003°28'1515.1
2016-Aug-19 07:33N 58°37' W 003°32'7 7.2
2016-Aug-19 06:33N 58°44' W 003°30'1515.2
2016-Aug-19 05:34N 58°58' W 003°18'0 0.2
2016-Aug-19 04:31N 58°58' W 003°18'0 0.0
2016-Aug-19 03:31N 58°58' W 003°18'0 0.0
2016-Aug-19 02:31N 58°58' W 003°18'0 0.0
2016-Aug-19 01:31N 58°58' W 003°18'0 0.0
2016-Aug-19 00:31N 58°58' W 003°18'0 0.0
2016-Aug-18 23:31N 58°58' W 003°18'0 0.0
2016-Aug-18 22:31N 58°58' W 003°18'0 0.0
2016-Aug-18 21:31N 58°58' W 003°18'0 0.0
2016-Aug-18 20:31N 58°58' W 003°18'0 0.0
2016-Aug-18 19:31N 58°58' W 003°18'1111.4
2016-Aug-18 18:33N 58°48' W 003°29'1211.9
2016-Aug-18 17:33N 58°37' W 003°32'1010.1
2016-Aug-18 16:33N 58°47' W 003°29'1312.6
2016-Aug-18 15:33N 58°58' W 003°18'0 0.0
2016-Aug-18 14:33N 58°58' W 003°18'1 0.5
2016-Aug-18 13:33N 58°57' W 003°18'1615.9
2016-Aug-18 12:33N 58°43' W 003°30'6 6.2
2016-Aug-18 11:33N 58°37' W 003°32'1414.3
2016-Aug-18 10:33N 58°51' W 003°28'9 8.9
2016-Aug-18 09:33N 58°58' W 003°18'8 7.6
2016-Aug-18 08:33N 58°52' W 003°28'1615.9
2016-Aug-18 07:34N 58°37' W 003°32'6 6.3
2016-Aug-18 06:33N 58°43' W 003°30'1615.9
2016-Aug-18 05:34N 58°57' W 003°18'1 0.5
2016-Aug-18 04:29N 58°58' W 003°18'0 0.0
2016-Aug-18 03:29N 58°58' W 003°18'0 0.0
2016-Aug-18 02:29N 58°58' W 003°18'0 0.0
2016-Aug-18 01:29N 58°58' W 003°18'0 0.0
2016-Aug-18 00:29N 58°58' W 003°18'0 0.0
2016-Aug-17 23:29N 58°58' W 003°18'0 0.0
2016-Aug-17 22:29N 58°58' W 003°18'0 0.0
2016-Aug-17 21:29N 58°58' W 003°18'0 0.0
2016-Aug-17 20:29N 58°58' W 003°18'0 0.0
2016-Aug-17 19:33N 58°58' W 003°18'1111.3
2016-Aug-17 18:33N 58°48' W 003°29'1211.8
2016-Aug-17 17:33N 58°37' W 003°32'1111.0
2016-Aug-17 16:33N 58°48' W 003°30'1212.0
2016-Aug-17 15:33N 58°58' W 003°18'0 0.0
2016-Aug-17 14:33N 58°58' W 003°18'0 0.1
2016-Aug-17 13:33N 58°58' W 003°18'1514.9
2016-Aug-17 12:33N 58°44' W 003°29'8 7.7
2016-Aug-17 11:33N 58°37' W 003°32'1515.1
2016-Aug-17 10:33N 58°52' W 003°28'8 8.2
2016-Aug-17 09:33N 58°58' W 003°18'7 6.8
2016-Aug-17 08:33N 58°53' W 003°27'1716.7
2016-Aug-17 07:33N 58°37' W 003°32'5 4.8
2016-Aug-17 06:33N 58°41' W 003°30'1716.6
2016-Aug-17 05:33N 58°57' W 003°19'  

Dump ship's entire track history